createdAt,value
2023-02-18T00:01:03.536Z,46.89
2023-02-18T00:05:56.250Z,46.80
2023-02-18T00:10:50.381Z,46.55
2023-02-18T00:15:43.023Z,46.44
2023-02-18T00:20:36.305Z,46.17
2023-02-18T00:25:30.288Z,46.03
2023-02-18T00:30:23.780Z,46.17
2023-02-18T00:35:17.898Z,45.99
2023-02-18T00:40:11.460Z,45.99
2023-02-18T00:45:05.148Z,45.72
2023-02-18T00:49:58.923Z,45.58
2023-02-18T00:54:52.038Z,45.44
2023-02-18T00:59:45.976Z,45.58
2023-02-18T01:04:39.501Z,45.24
2023-02-18T01:09:33.001Z,45.45
2023-02-18T01:14:26.301Z,45.09
2023-02-18T01:19:19.755Z,45.07
2023-02-18T01:24:12.968Z,44.62
2023-02-18T01:29:08.977Z,44.94
2023-02-18T01:34:02.106Z,44.97
2023-02-18T01:38:55.594Z,44.99
2023-02-18T01:43:48.365Z,44.94
2023-02-18T01:49:01.030Z,44.92
2023-02-18T01:54:31.186Z,44.65
2023-02-18T01:59:33.360Z,44.74
2023-02-18T02:04:26.651Z,44.58
2023-02-18T02:09:23.990Z,44.67
2023-02-18T02:14:32.232Z,44.77
2023-02-18T02:19:54.928Z,44.59
2023-02-18T02:25:11.852Z,44.56
2023-02-18T02:30:23.185Z,44.33
2023-02-18T02:35:21.397Z,44.57
2023-02-18T02:40:30.788Z,44.42
2023-02-18T02:45:26.700Z,44.18
2023-02-18T02:50:33.240Z,44.35
2023-02-18T02:55:26.105Z,44.24
2023-02-18T03:00:36.483Z,44.21
2023-02-18T03:05:28.976Z,43.92
2023-02-18T03:10:53.715Z,44.21
2023-02-18T03:15:57.159Z,44.03
2023-02-18T03:21:04.526Z,44.08
2023-02-18T03:26:01.185Z,43.94
2023-02-18T03:30:59.306Z,43.92
2023-02-18T03:35:57.314Z,43.32
2023-02-18T03:40:52.374Z,43.23
2023-02-18T03:45:45.153Z,43.25
2023-02-18T03:50:38.669Z,43.11
2023-02-18T03:55:30.762Z,43.10
2023-02-18T04:00:25.486Z,42.99
2023-02-18T04:05:18.725Z,42.91
2023-02-18T04:10:13.253Z,42.88
2023-02-18T04:15:06.903Z,42.86
2023-02-18T04:20:00.015Z,42.99
2023-02-18T04:24:53.124Z,42.88
2023-02-18T04:29:46.269Z,42.82
2023-02-18T04:34:40.009Z,42.89
2023-02-18T04:39:33.385Z,42.92
2023-02-18T04:44:26.517Z,42.60
2023-02-18T04:49:19.513Z,43.13
2023-02-18T04:54:12.641Z,42.79
2023-02-18T04:59:05.748Z,42.80
2023-02-18T05:03:58.751Z,43.26
2023-02-18T05:08:52.216Z,43.02
2023-02-18T05:13:45.894Z,43.30
2023-02-18T05:18:38.925Z,43.57
2023-02-18T05:23:31.339Z,43.45
2023-02-18T05:28:24.526Z,43.58
2023-02-18T05:33:17.203Z,43.48
2023-02-18T05:38:11.086Z,43.40
2023-02-18T05:43:04.194Z,43.37
2023-02-18T05:47:58.026Z,43.15
2023-02-18T05:52:50.326Z,43.24
2023-02-18T05:57:43.504Z,43.29
2023-02-18T06:02:35.425Z,43.15
2023-02-18T06:07:28.417Z,43.21
2023-02-18T06:12:21.420Z,43.23
2023-02-18T06:17:15.951Z,42.88
2023-02-18T06:22:08.648Z,43.06
2023-02-18T06:27:03.283Z,42.90
2023-02-18T06:31:57.166Z,42.66
2023-02-18T06:36:49.712Z,41.73
2023-02-18T06:41:44.087Z,41.71
2023-02-18T06:46:37.045Z,41.38
2023-02-18T06:51:29.704Z,40.85
2023-02-18T06:56:23.052Z,40.73
2023-02-18T07:01:16.547Z,40.51
2023-02-18T07:06:10.024Z,41.32
2023-02-18T07:11:03.638Z,42.83
2023-02-18T07:15:55.967Z,43.08
2023-02-18T07:20:50.459Z,42.45
2023-02-18T07:25:43.214Z,42.68
2023-02-18T07:30:37.154Z,37.27
2023-02-18T07:35:30.896Z,39.11
2023-02-18T07:40:23.604Z,38.52
2023-02-18T07:45:17.618Z,37.99
2023-02-18T07:50:10.442Z,38.63
2023-02-18T07:55:03.161Z,39.25
2023-02-18T07:59:57.337Z,39.05
2023-02-18T08:04:50.030Z,39.30
2023-02-18T08:09:43.530Z,39.49
2023-02-18T08:14:36.779Z,39.79
2023-02-18T08:19:30.864Z,40.01
2023-02-18T08:24:24.264Z,39.94
2023-02-18T08:29:17.545Z,40.52
2023-02-18T08:34:10.595Z,40.57
2023-02-18T08:39:04.508Z,41.22
2023-02-18T08:43:57.933Z,41.20
2023-02-18T08:48:51.874Z,41.26
2023-02-18T08:53:45.213Z,41.07
2023-02-18T08:58:38.225Z,41.52
2023-02-18T09:03:29.932Z,41.50
2023-02-18T09:08:24.135Z,41.54
2023-02-18T09:13:17.237Z,41.83
2023-02-18T09:18:11.253Z,41.64
2023-02-18T09:23:05.008Z,41.70
2023-02-18T09:27:58.486Z,41.75
2023-02-18T09:32:51.529Z,41.76
2023-02-18T09:37:45.005Z,41.75
2023-02-18T09:42:37.653Z,41.49
2023-02-18T09:47:38.601Z,41.75
2023-02-18T09:52:37.076Z,41.66
2023-02-18T09:57:41.844Z,41.91
2023-02-18T10:02:37.038Z,41.70
2023-02-18T10:07:34.269Z,42.10
2023-02-18T10:12:27.514Z,41.95
2023-02-18T10:17:24.570Z,42.00
2023-02-18T10:22:19.678Z,41.94
2023-02-18T10:27:20.860Z,41.86
2023-02-18T10:32:40.322Z,42.00
2023-02-18T10:37:41.767Z,42.23
2023-02-18T10:43:04.798Z,41.88
2023-02-18T10:48:29.271Z,41.91
2023-02-18T10:53:39.525Z,42.14
2023-02-18T10:58:34.149Z,42.18
2023-02-18T11:03:38.491Z,42.23
2023-02-18T11:08:46.111Z,42.12
2023-02-18T11:13:41.959Z,41.97
2023-02-18T11:18:41.129Z,42.31
2023-02-18T11:23:47.466Z,42.18
2023-02-18T11:28:50.578Z,42.14
2023-02-18T11:33:48.906Z,42.17
2023-02-18T11:38:48.773Z,42.07
2023-02-18T11:43:50.917Z,42.06
2023-02-18T11:48:44.269Z,42.53
2023-02-18T11:53:37.602Z,43.68
2023-02-18T11:58:42.701Z,44.71
2023-02-18T12:03:47.020Z,45.29
2023-02-18T12:08:52.648Z,45.96
2023-02-18T12:13:54.965Z,46.38
2023-02-18T12:19:08.506Z,46.29
2023-02-18T12:24:38.949Z,47.39
2023-02-18T12:29:44.276Z,46.85
2023-02-18T12:34:45.586Z,46.70
2023-02-18T12:40:11.975Z,46.12
2023-02-18T12:45:32.877Z,46.24
2023-02-18T12:50:37.020Z,46.54
2023-02-18T12:55:55.110Z,46.24
2023-02-18T13:00:58.274Z,46.66
2023-02-18T13:06:14.119Z,46.70
2023-02-18T13:11:58.033Z,47.30
2023-02-18T13:16:56.198Z,47.47
2023-02-18T13:21:51.878Z,47.33
2023-02-18T13:26:49.587Z,47.36
2023-02-18T13:32:12.748Z,48.15
2023-02-18T13:37:29.717Z,48.08
2023-02-18T13:42:36.902Z,48.18
2023-02-18T13:47:39.917Z,48.09
2023-02-18T13:52:32.849Z,48.34
2023-02-18T13:57:29.173Z,48.39
2023-02-18T14:02:22.206Z,48.67
2023-02-18T14:07:45.146Z,48.46
2023-02-18T14:12:41.735Z,48.51
2023-02-18T14:17:43.110Z,48.61
2023-02-18T14:22:50.437Z,48.62
2023-02-18T14:27:44.199Z,48.97
2023-02-18T14:32:41.228Z,49.61
2023-02-18T14:37:42.456Z,49.59
2023-02-18T14:42:43.205Z,49.96
2023-02-18T14:47:41.840Z,49.73
2023-02-18T14:52:42.543Z,50.49
2023-02-18T14:58:13.684Z,50.77
2023-02-18T15:03:14.693Z,50.61
2023-02-18T15:08:20.549Z,50.54
2023-02-18T15:13:27.267Z,50.38
2023-02-18T15:18:23.637Z,50.38
2023-02-18T15:23:18.709Z,50.24
2023-02-18T15:28:24.549Z,50.51
2023-02-18T15:33:19.402Z,50.25
2023-02-18T15:38:20.632Z,50.73
2023-02-18T15:43:18.904Z,50.89
2023-02-18T15:48:27.791Z,51.25
2023-02-18T15:53:21.934Z,51.01
2023-02-18T15:58:22.549Z,50.96
2023-02-18T16:03:17.932Z,50.83
2023-02-18T16:08:30.328Z,51.23
2023-02-18T16:13:26.454Z,51.23
2023-02-18T16:18:51.110Z,51.19
2023-02-18T16:24:04.594Z,51.73
2023-02-18T16:29:06.139Z,51.59
2023-02-18T16:33:59.553Z,51.70
2023-02-18T16:39:12.368Z,51.57
2023-02-18T16:44:14.753Z,51.61
2023-02-18T16:49:12.895Z,51.85
2023-02-18T16:54:05.873Z,51.16
2023-02-18T16:58:59.334Z,51.40
2023-02-18T17:03:52.836Z,51.29
2023-02-18T17:08:45.660Z,51.51
2023-02-18T17:13:38.057Z,51.30
2023-02-18T17:18:32.600Z,51.44
2023-02-18T17:23:26.458Z,51.45
2023-02-18T17:28:20.839Z,51.23
2023-02-18T17:33:18.319Z,51.47
2023-02-18T17:38:16.331Z,51.40
2023-02-18T17:43:17.560Z,51.24
2023-02-18T17:48:10.248Z,51.60
2023-02-18T17:53:03.826Z,51.62
2023-02-18T17:57:57.579Z,51.45
2023-02-18T18:02:50.913Z,51.38
2023-02-18T18:07:50.280Z,51.23
2023-02-18T18:12:43.859Z,51.63
2023-02-18T18:17:38.005Z,51.49
2023-02-18T18:22:30.997Z,51.35
2023-02-18T18:27:23.802Z,51.91
2023-02-18T18:32:17.576Z,53.11
2023-02-18T18:37:10.923Z,53.09
2023-02-18T18:42:06.986Z,53.33
2023-02-18T18:46:59.985Z,53.92
2023-02-18T18:51:52.503Z,53.04
2023-02-18T18:56:45.418Z,52.56
2023-02-18T19:01:38.487Z,52.47
2023-02-18T19:06:31.366Z,46.57
2023-02-18T19:11:24.881Z,51.75
2023-02-18T19:16:20.380Z,51.67
2023-02-18T19:21:13.768Z,51.37
2023-02-18T19:26:07.894Z,50.82
2023-02-18T19:31:02.816Z,50.67
2023-02-18T19:35:56.185Z,50.49
2023-02-18T19:40:49.504Z,50.06
2023-02-18T19:45:47.095Z,50.28
2023-02-18T19:50:42.181Z,50.13
2023-02-18T19:55:35.391Z,50.56
2023-02-18T20:00:28.048Z,50.78
2023-02-18T20:05:20.895Z,51.07
2023-02-18T20:10:15.628Z,51.37
2023-02-18T20:15:09.872Z,51.99
2023-02-18T20:20:02.309Z,51.96
2023-02-18T20:24:55.957Z,52.23
2023-02-18T20:29:49.153Z,52.64
2023-02-18T20:34:42.548Z,52.58
2023-02-18T20:39:36.028Z,53.81
2023-02-18T20:44:28.970Z,53.36
2023-02-18T20:49:22.565Z,53.20
2023-02-18T20:54:19.971Z,53.19
2023-02-18T20:59:15.561Z,54.21
2023-02-18T21:04:12.470Z,53.70
2023-02-18T21:09:05.529Z,54.06
2023-02-18T21:13:59.178Z,53.88
2023-02-18T21:18:52.812Z,53.91
2023-02-18T21:23:45.746Z,54.03
2023-02-18T21:28:40.293Z,53.61
2023-02-18T21:33:32.964Z,53.80
2023-02-18T21:38:25.142Z,54.05
2023-02-18T21:43:19.541Z,53.74
2023-02-18T21:48:30.769Z,53.83
2023-02-18T21:53:23.890Z,53.40
2023-02-18T21:58:16.983Z,53.45
2023-02-18T22:03:10.173Z,53.72
2023-02-18T22:08:03.618Z,53.61
2023-02-18T22:12:56.950Z,54.35
2023-02-18T22:17:50.421Z,53.61
2023-02-18T22:22:42.798Z,53.92
2023-02-18T22:27:37.079Z,53.61
2023-02-18T22:32:32.604Z,53.92
2023-02-18T22:37:25.844Z,53.79
2023-02-18T22:42:18.790Z,54.06
2023-02-18T22:47:12.089Z,53.62
2023-02-18T22:52:05.898Z,53.69
2023-02-18T22:56:59.470Z,53.65
2023-02-18T23:01:53.123Z,53.74
2023-02-18T23:06:47.222Z,53.43
2023-02-18T23:11:39.904Z,53.55
2023-02-18T23:16:53.812Z,53.52
2023-02-18T23:21:46.080Z,53.44
2023-02-18T23:26:38.626Z,53.49
2023-02-18T23:31:33.437Z,53.30
2023-02-18T23:36:29.799Z,53.18
2023-02-18T23:41:23.761Z,53.19
2023-02-18T23:46:18.993Z,53.19
2023-02-18T23:51:15.289Z,53.11
2023-02-18T23:56:15.548Z,53.14
